Terminal Aerodrome Forecast
Issued by NWS

Current Version | Previous Version | Graphics & Text | Print | Product List | Glossary On
Versions: 1 2 3 4 5 6 7 8 9 10 11 12 13 14 15 16 17 18 19 20 21 22 23 24
419
FTUS41 KPBZ 260901 AAA
TAFHLG
TAF AMD
KHLG 260901Z 2609/2706 27010KT P6SM VCSH BKN010 OVC015
     FM261700 26010KT P6SM BKN020
     FM261900 26010KT P6SM BKN030
     FM270000 29005KT P6SM BKN035=

USA.gov is the U.S. government's official web portal to all federal, state and local government web resources and services.